Accueil
METAR-TAF:

METAR-TAF

Aéroports :

Farnborough, Angleterre

latitude: 51-17N, longitude: 000-46W, altitude: 65 m

Observation

Le bulletin a été fait il y a 26 minutes, à 07:20 UTC
Vent 5 kt de nord/nord-ouest
Température 5°C
Humidité 93%
Pression 1023 hPa
Visibilité: 7000 m

METAR: EGLF 240720Z AUTO 34005KT 7000 FEW005/// OVC012/// 05/04 Q1023

Heure: 07:46 (07:46 UTC)

Prévision

Le bulletin a été fait il y a 54 minutes, à 06:52 UTC
Prévision valable du 24 à 06 UTC au 24 à 15 UTC
Vent 4 kt de nord/nord-ouest
Visibilité: 8000 m
Nuages fragmentés à une hauteur de 1400 ft
Temporairement
du 24 à 06 UTC au 24 à 15 UTC
Visibilité: 4000 m
Nuages fragmentés à une hauteur de 600 ft
faible bruine, brume
Evoluant progressivement
du 24 à 10 UTC au 24 à 13 UTC
Visibilité 10 km ou plus

TAF: EGLF 240652Z 2406/2415 33004KT 8000 BKN014 TEMPO 2406/2415 4000 -DZ BR BKN006 BECMG 2410/2413 9999

Observations et prévisions météorologiques de plus de 4000 aéroports (messages METAR et TAF).

Les stations disponibles sont représentées par des disques jaunes et rouges sur la carte.

Passer la souris dessus pour voir le nom de la station.

Cliquer dessus pour voir les observations et prévisions météorologiques.

Pour changer de carte: cliquez sur les boutons verts avec une croix noire pour zoomer, sur le bouton vert avec un tiret pour effectuer un zoom arrière, ou sur les flèches vertes pour les cartes adjacentes.


METAR-TAF: